sensor_id;sensor_type;location;lat;lon;timestamp;pressure;altitude;pressure_sealevel;temperature;humidity
62103;BME280;48077;48.104;11.702;2022-07-17T00:00:26;96276.69;;;13.38;65.29
62103;BME280;48077;48.104;11.702;2022-07-17T00:02:49;96250.66;;;13.15;65.48
62103;BME280;48077;48.104;11.702;2022-07-17T00:05:14;96293.94;;;13.42;65.32
62103;BME280;48077;48.104;11.702;2022-07-17T00:07:37;96241.34;;;13.18;65.27
62103;BME280;48077;48.104;11.702;2022-07-17T00:10:01;96216.88;;;13.02;64.93
62103;BME280;48077;48.104;11.702;2022-07-17T00:12:24;96277.97;;;13.35;65.13
62103;BME280;48077;48.104;11.702;2022-07-17T00:14:48;96234.69;;;13.08;65.45
62103;BME280;48077;48.104;11.702;2022-07-17T00:17:11;96274.16;;;13.25;65.72
62103;BME280;48077;48.104;11.702;2022-07-17T00:19:35;96257.72;;;13.09;65.54
62103;BME280;48077;48.104;11.702;2022-07-17T00:21:59;96269.16;;;13.16;65.39
62103;BME280;48077;48.104;11.702;2022-07-17T00:24:22;96219.72;;;12.89;65.32
62103;BME280;48077;48.104;11.702;2022-07-17T00:26:47;96262.50;;;13.07;65.41
62103;BME280;48077;48.104;11.702;2022-07-17T00:29:10;96282.19;;;13.13;65.50
62103;BME280;48077;48.104;11.702;2022-07-17T00:31:34;96262.47;;;12.95;66.04
62103;BME280;48077;48.104;11.702;2022-07-17T00:33:57;96257.69;;;12.86;66.65
62103;BME280;48077;48.104;11.702;2022-07-17T00:36:21;96258.59;;;12.80;66.78
62103;BME280;48077;48.104;11.702;2022-07-17T00:38:44;96256.72;;;12.80;66.92
62103;BME280;48077;48.104;11.702;2022-07-17T00:41:07;96242.94;;;12.65;66.91
62103;BME280;48077;48.104;11.702;2022-07-17T00:43:31;96280.50;;;12.88;67.37
62103;BME280;48077;48.104;11.702;2022-07-17T00:45:59;96275.34;;;12.87;67.51
62103;BME280;48077;48.104;11.702;2022-07-17T00:48:23;96235.22;;;12.57;67.51
62103;BME280;48077;48.104;11.702;2022-07-17T00:50:47;96257.56;;;12.62;67.71
62103;BME280;48077;48.104;11.702;2022-07-17T00:53:10;96246.84;;;12.50;67.85
62103;BME280;48077;48.104;11.702;2022-07-17T00:55:34;96260.81;;;12.52;68.81
62103;BME280;48077;48.104;11.702;2022-07-17T00:58:01;96283.75;;;12.60;69.02
62103;BME280;48077;48.104;11.702;2022-07-17T01:00:26;96282.34;;;12.58;69.55
62103;BME280;48077;48.104;11.702;2022-07-17T01:02:52;96286.88;;;12.57;69.69
62103;BME280;48077;48.104;11.702;2022-07-17T01:05:17;96253.41;;;12.36;69.59
62103;BME280;48077;48.104;11.702;2022-07-17T01:07:41;96233.44;;;12.20;69.79
62103;BME280;48077;48.104;11.702;2022-07-17T01:10:05;96222.81;;;12.13;69.47
62103;BME280;48077;48.104;11.702;2022-07-17T01:12:29;96255.03;;;12.37;70.32
62103;BME280;48077;48.104;11.702;2022-07-17T01:14:53;96259.94;;;12.40;69.74
62103;BME280;48077;48.104;11.702;2022-07-17T01:17:17;96283.63;;;12.55;70.05
62103;BME280;48077;48.104;11.702;2022-07-17T01:19:40;96242.03;;;12.22;70.16
62103;BME280;48077;48.104;11.702;2022-07-17T01:22:03;96236.09;;;12.20;70.42
62103;BME280;48077;48.104;11.702;2022-07-17T01:24:27;96256.88;;;12.37;70.58
62103;BME280;48077;48.104;11.702;2022-07-17T01:26:50;96248.75;;;12.31;70.50
62103;BME280;48077;48.104;11.702;2022-07-17T01:29:14;96251.09;;;12.40;70.03
62103;BME280;48077;48.104;11.702;2022-07-17T01:31:38;96277.91;;;12.51;69.91
62103;BME280;48077;48.104;11.702;2022-07-17T01:34:05;96248.16;;;12.29;69.79
62103;BME280;48077;48.104;11.702;2022-07-17T01:36:29;96211.25;;;12.01;69.38
62103;BME280;48077;48.104;11.702;2022-07-17T01:38:52;96259.06;;;12.28;69.15
62103;BME280;48077;48.104;11.702;2022-07-17T01:41:16;96202.94;;;11.91;69.36
62103;BME280;48077;48.104;11.702;2022-07-17T01:43:39;96198.00;;;11.88;69.07
62103;BME280;48077;48.104;11.702;2022-07-17T01:46:03;96261.81;;;12.21;69.48
62103;BME280;48077;48.104;11.702;2022-07-17T01:48:27;96285.22;;;12.26;69.60
62103;BME280;48077;48.104;11.702;2022-07-17T01:50:51;96278.88;;;12.20;69.98
62103;BME280;48077;48.104;11.702;2022-07-17T01:53:14;96263.44;;;12.04;70.13
62103;BME280;48077;48.104;11.702;2022-07-17T01:55:37;96249.41;;;11.90;70.46
62103;BME280;48077;48.104;11.702;2022-07-17T01:58:01;96269.91;;;11.96;70.54
62103;BME280;48077;48.104;11.702;2022-07-17T02:00:24;96245.28;;;11.69;70.71
62103;BME280;48077;48.104;11.702;2022-07-17T02:02:48;96241.78;;;11.68;70.83
62103;BME280;48077;48.104;11.702;2022-07-17T02:05:12;96255.97;;;11.69;70.91
62103;BME280;48077;48.104;11.702;2022-07-17T02:07:36;96262.88;;;11.77;70.71
62103;BME280;48077;48.104;11.702;2022-07-17T02:10:03;96214.59;;;11.34;71.38
62103;BME280;48077;48.104;11.702;2022-07-17T02:12:26;96259.28;;;11.64;71.09
62103;BME280;48077;48.104;11.702;2022-07-17T02:14:50;96254.22;;;11.56;71.09
62103;BME280;48077;48.104;11.702;2022-07-17T02:17:13;96266.88;;;11.67;71.18
62103;BME280;48077;48.104;11.702;2022-07-17T02:19:36;96257.47;;;11.65;71.44
62103;BME280;48077;48.104;11.702;2022-07-17T02:22:00;96236.78;;;11.53;71.42
62103;BME280;48077;48.104;11.702;2022-07-17T02:24:23;96281.22;;;11.73;71.53
62103;BME280;48077;48.104;11.702;2022-07-17T02:26:47;96262.63;;;11.60;71.57
62103;BME280;48077;48.104;11.702;2022-07-17T02:29:10;96204.84;;;11.22;71.41
62103;BME280;48077;48.104;11.702;2022-07-17T02:31:34;96198.16;;;11.12;71.60
62103;BME280;48077;48.104;11.702;2022-07-17T02:33:57;96242.28;;;11.40;72.18
62103;BME280;48077;48.104;11.702;2022-07-17T02:36:20;96210.66;;;11.12;71.89
62103;BME280;48077;48.104;11.702;2022-07-17T02:38:44;96230.19;;;11.12;72.67
62103;BME280;48077;48.104;11.702;2022-07-17T02:41:07;96206.72;;;10.96;72.61
62103;BME280;48077;48.104;11.702;2022-07-17T02:43:31;96275.63;;;11.31;73.03
62103;BME280;48077;48.104;11.702;2022-07-17T02:45:55;96261.72;;;11.22;73.45
62103;BME280;48077;48.104;11.702;2022-07-17T02:48:18;96282.81;;;11.30;73.13
62103;BME280;48077;48.104;11.702;2022-07-17T02:50:41;96244.41;;;11.06;73.37
62103;BME280;48077;48.104;11.702;2022-07-17T02:53:05;96235.81;;;11.04;73.30
62103;BME280;48077;48.104;11.702;2022-07-17T02:55:28;96260.91;;;11.22;73.21
62103;BME280;48077;48.104;11.702;2022-07-17T02:57:52;96252.31;;;11.20;72.91
62103;BME280;48077;48.104;11.702;2022-07-17T03:00:17;96279.53;;;11.28;72.28
62103;BME280;48077;48.104;11.702;2022-07-17T03:02:42;96258.34;;;11.08;72.53
62103;BME280;48077;48.104;11.702;2022-07-17T03:05:05;96257.78;;;11.00;73.66
62103;BME280;48077;48.104;11.702;2022-07-17T03:07:29;96234.72;;;10.80;73.20
62103;BME280;48077;48.104;11.702;2022-07-17T03:09:52;96232.75;;;10.69;73.53
62103;BME280;48077;48.104;11.702;2022-07-17T03:12:16;96289.59;;;11.01;73.62
62103;BME280;48077;48.104;11.702;2022-07-17T03:14:39;96272.03;;;10.87;73.83
62103;BME280;48077;48.104;11.702;2022-07-17T03:17:02;96261.00;;;10.77;73.86
62103;BME280;48077;48.104;11.702;2022-07-17T03:19:26;96255.72;;;10.70;74.14
62103;BME280;48077;48.104;11.702;2022-07-17T03:21:49;96252.66;;;10.66;74.49
62103;BME280;48077;48.104;11.702;2022-07-17T03:24:13;96254.91;;;10.69;74.14
62103;BME280;48077;48.104;11.702;2022-07-17T03:26:36;96231.81;;;10.57;74.17
62103;BME280;48077;48.104;11.702;2022-07-17T03:28:59;96234.03;;;10.60;74.43
62103;BME280;48077;48.104;11.702;2022-07-17T03:31:23;96242.44;;;10.63;74.32
62103;BME280;48077;48.104;11.702;2022-07-17T03:33:46;96273.28;;;10.84;74.04
62103;BME280;48077;48.104;11.702;2022-07-17T03:36:09;96269.66;;;10.72;74.19
62103;BME280;48077;48.104;11.702;2022-07-17T03:38:33;96242.69;;;10.55;74.63
62103;BME280;48077;48.104;11.702;2022-07-17T03:40:56;96198.91;;;10.24;74.25
62103;BME280;48077;48.104;11.702;2022-07-17T03:43:20;96249.63;;;10.56;74.47
62103;BME280;48077;48.104;11.702;2022-07-17T03:45:43;96263.78;;;10.63;74.74
62103;BME280;48077;48.104;11.702;2022-07-17T03:48:07;96265.84;;;10.61;74.67
62103;BME280;48077;48.104;11.702;2022-07-17T03:50:30;96266.03;;;10.60;74.77
62103;BME280;48077;48.104;11.702;2022-07-17T03:52:53;96256.88;;;10.49;75.19
62103;BME280;48077;48.104;11.702;2022-07-17T03:55:17;96244.34;;;10.49;74.49
62103;BME280;48077;48.104;11.702;2022-07-17T03:57:40;96241.13;;;10.41;74.30
62103;BME280;48077;48.104;11.702;2022-07-17T04:00:04;96268.09;;;10.58;75.10
62103;BME280;48077;48.104;11.702;2022-07-17T04:02:28;96252.78;;;10.46;75.16
62103;BME280;48077;48.104;11.702;2022-07-17T04:04:51;96257.31;;;10.46;75.28
62103;BME280;48077;48.104;11.702;2022-07-17T04:07:15;96276.50;;;10.61;75.60
62103;BME280;48077;48.104;11.702;2022-07-17T04:09:50;96273.84;;;10.61;75.93
62103;BME280;48077;48.104;11.702;2022-07-17T04:12:14;96236.59;;;10.41;75.69
62103;BME280;48077;48.104;11.702;2022-07-17T04:14:37;96263.59;;;10.58;75.24
62103;BME280;48077;48.104;11.702;2022-07-17T04:17:00;96258.09;;;10.53;75.29
62103;BME280;48077;48.104;11.702;2022-07-17T04:19:23;96243.13;;;10.45;75.48
62103;BME280;48077;48.104;11.702;2022-07-17T04:21:47;96282.41;;;10.70;76.45
62103;BME280;48077;48.104;11.702;2022-07-17T04:24:10;96256.22;;;10.53;75.94
62103;BME280;48077;48.104;11.702;2022-07-17T04:26:34;96244.94;;;10.51;76.24
62103;BME280;48077;48.104;11.702;2022-07-17T04:28:57;96282.97;;;10.79;76.54
62103;BME280;48077;48.104;11.702;2022-07-17T04:31:20;96267.41;;;10.76;76.03
62103;BME280;48077;48.104;11.702;2022-07-17T04:33:44;96277.59;;;10.85;75.88
62103;BME280;48077;48.104;11.702;2022-07-17T04:36:07;96265.88;;;10.86;75.48
62103;BME280;48077;48.104;11.702;2022-07-17T04:38:31;96278.94;;;11.01;74.84
62103;BME280;48077;48.104;11.702;2022-07-17T04:40:54;96285.97;;;11.21;74.81
62103;BME280;48077;48.104;11.702;2022-07-17T04:43:17;96253.66;;;11.04;74.62
62103;BME280;48077;48.104;11.702;2022-07-17T04:45:41;96268.31;;;11.20;74.48
62103;BME280;48077;48.104;11.702;2022-07-17T04:48:04;96246.81;;;11.14;74.52
62103;BME280;48077;48.104;11.702;2022-07-17T04:50:28;96299.72;;;11.49;74.49
62103;BME280;48077;48.104;11.702;2022-07-17T04:52:51;96288.97;;;11.56;74.19
62103;BME280;48077;48.104;11.702;2022-07-17T04:55:15;96292.19;;;11.65;74.14
62103;BME280;48077;48.104;11.702;2022-07-17T04:57:38;96293.53;;;11.74;73.98
62103;BME280;48077;48.104;11.702;2022-07-17T05:00:04;96222.38;;;11.36;73.99
62103;BME280;48077;48.104;11.702;2022-07-17T05:02:27;96296.69;;;11.89;73.89
62103;BME280;48077;48.104;11.702;2022-07-17T05:04:51;96291.06;;;11.98;74.10
62103;BME280;48077;48.104;11.702;2022-07-17T05:07:15;96300.97;;;12.15;73.48
62103;BME280;48077;48.104;11.702;2022-07-17T05:09:41;96304.06;;;12.31;72.76
62103;BME280;48077;48.104;11.702;2022-07-17T05:12:05;96278.81;;;12.27;72.37
62103;BME280;48077;48.104;11.702;2022-07-17T05:14:28;96292.53;;;12.49;71.88
62103;BME280;48077;48.104;11.702;2022-07-17T05:16:52;96304.63;;;12.70;71.83
62103;BME280;48077;48.104;11.702;2022-07-17T05:19:15;96294.78;;;12.82;70.77
62103;BME280;48077;48.104;11.702;2022-07-17T05:21:38;96259.59;;;12.67;70.46
62103;BME280;48077;48.104;11.702;2022-07-17T05:24:02;96272.69;;;12.87;70.27
62103;BME280;48077;48.104;11.702;2022-07-17T05:26:26;96302.81;;;13.12;69.95
62103;BME280;48077;48.104;11.702;2022-07-17T05:28:49;96287.31;;;13.14;69.62
62103;BME280;48077;48.104;11.702;2022-07-17T05:31:12;96309.19;;;13.42;69.52
62103;BME280;48077;48.104;11.702;2022-07-17T05:33:36;96287.28;;;13.45;69.23
62103;BME280;48077;48.104;11.702;2022-07-17T05:36:00;96289.50;;;13.60;68.76
62103;BME280;48077;48.104;11.702;2022-07-17T05:38:23;96289.31;;;13.73;67.83
62103;BME280;48077;48.104;11.702;2022-07-17T05:40:46;96247.44;;;13.60;66.91
62103;BME280;48077;48.104;11.702;2022-07-17T05:43:10;96306.50;;;14.12;65.72
62103;BME280;48077;48.104;11.702;2022-07-17T05:45:33;96280.06;;;14.04;65.10
62103;BME280;48077;48.104;11.702;2022-07-17T05:47:57;96296.94;;;14.28;64.88
62103;BME280;48077;48.104;11.702;2022-07-17T05:50:20;96278.72;;;14.30;64.37
62103;BME280;48077;48.104;11.702;2022-07-17T05:52:44;96289.53;;;14.47;64.15
62103;BME280;48077;48.104;11.702;2022-07-17T05:55:07;96307.03;;;14.62;64.13
62103;BME280;48077;48.104;11.702;2022-07-17T05:57:30;96302.53;;;14.79;62.25
62103;BME280;48077;48.104;11.702;2022-07-17T05:59:54;96271.75;;;14.70;62.46
62103;BME280;48077;48.104;11.702;2022-07-17T06:02:17;96283.69;;;14.91;61.97
62103;BME280;48077;48.104;11.702;2022-07-17T06:04:41;96290.16;;;15.07;61.64
62103;BME280;48077;48.104;11.702;2022-07-17T06:07:04;96291.38;;;15.16;61.39
62103;BME280;48077;48.104;11.702;2022-07-17T06:09:27;96296.38;;;15.24;60.67
62103;BME280;48077;48.104;11.702;2022-07-17T06:11:51;96297.06;;;15.31;60.41
62103;BME280;48077;48.104;11.702;2022-07-17T06:14:15;96293.53;;;15.48;60.18
62103;BME280;48077;48.104;11.702;2022-07-17T06:16:39;96290.59;;;15.49;59.69
62103;BME280;48077;48.104;11.702;2022-07-17T06:19:02;96283.28;;;15.62;59.14
62103;BME280;48077;48.104;11.702;2022-07-17T06:21:25;96288.09;;;15.76;57.88
62103;BME280;48077;48.104;11.702;2022-07-17T06:23:49;96289.47;;;15.96;57.24
62103;BME280;48077;48.104;11.702;2022-07-17T06:26:12;96304.50;;;16.14;56.29
62103;BME280;48077;48.104;11.702;2022-07-17T06:28:35;96271.34;;;16.08;55.76
62103;BME280;48077;48.104;11.702;2022-07-17T06:30:59;96298.59;;;16.34;55.50
62103;BME280;48077;48.104;11.702;2022-07-17T06:33:22;96300.66;;;16.49;55.23
62103;BME280;48077;48.104;11.702;2022-07-17T06:35:46;96295.84;;;16.51;55.35
62103;BME280;48077;48.104;11.702;2022-07-17T06:38:09;96292.97;;;16.57;53.50
62103;BME280;48077;48.104;11.702;2022-07-17T06:40:33;96302.09;;;16.78;53.57
62103;BME280;48077;48.104;11.702;2022-07-17T06:42:57;96303.03;;;16.89;53.27
62103;BME280;48077;48.104;11.702;2022-07-17T06:45:20;96310.69;;;16.97;53.30
62103;BME280;48077;48.104;11.702;2022-07-17T06:47:44;96286.50;;;17.03;52.79
62103;BME280;48077;48.104;11.702;2022-07-17T06:50:07;96303.94;;;17.22;51.79
62103;BME280;48077;48.104;11.702;2022-07-17T06:52:31;96295.53;;;17.18;52.11
62103;BME280;48077;48.104;11.702;2022-07-17T06:54:55;96296.25;;;17.36;51.90
62103;BME280;48077;48.104;11.702;2022-07-17T06:57:18;96293.84;;;17.39;51.73
62103;BME280;48077;48.104;11.702;2022-07-17T06:59:41;96287.13;;;17.42;51.47
62103;BME280;48077;48.104;11.702;2022-07-17T07:02:05;96296.38;;;17.51;51.53
62103;BME280;48077;48.104;11.702;2022-07-17T07:04:28;96277.25;;;17.58;50.70
62103;BME280;48077;48.104;11.702;2022-07-17T07:06:52;96308.53;;;17.86;50.72
62103;BME280;48077;48.104;11.702;2022-07-17T07:09:15;96302.38;;;17.91;50.61
62103;BME280;48077;48.104;11.702;2022-07-17T07:11:39;96312.75;;;18.14;49.93
62103;BME280;48077;48.104;11.702;2022-07-17T07:14:02;96326.13;;;18.31;48.22
62103;BME280;48077;48.104;11.702;2022-07-17T07:16:26;96281.25;;;18.25;46.57
62103;BME280;48077;48.104;11.702;2022-07-17T07:18:49;96300.53;;;18.49;46.70
62103;BME280;48077;48.104;11.702;2022-07-17T07:21:12;96320.88;;;18.67;45.89
62103;BME280;48077;48.104;11.702;2022-07-17T07:23:36;96319.34;;;18.82;45.08
62103;BME280;48077;48.104;11.702;2022-07-17T07:25:59;96310.97;;;18.83;44.60
62103;BME280;48077;48.104;11.702;2022-07-17T07:28:22;96297.66;;;18.76;45.03
62103;BME280;48077;48.104;11.702;2022-07-17T07:30:46;96301.53;;;18.86;44.71
62103;BME280;48077;48.104;11.702;2022-07-17T07:33:09;96287.47;;;18.84;44.33
62103;BME280;48077;48.104;11.702;2022-07-17T07:35:33;96310.78;;;19.15;44.55
62103;BME280;48077;48.104;11.702;2022-07-17T07:37:56;96304.59;;;19.25;44.05
62103;BME280;48077;48.104;11.702;2022-07-17T07:40:19;96278.63;;;19.19;44.20
62103;BME280;48077;48.104;11.702;2022-07-17T07:42:43;96312.19;;;19.44;44.15
62103;BME280;48077;48.104;11.702;2022-07-17T07:45:08;96313.53;;;19.51;43.36
62103;BME280;48077;48.104;11.702;2022-07-17T07:47:31;96300.81;;;19.62;42.13
62103;BME280;48077;48.104;11.702;2022-07-17T07:49:55;96298.94;;;19.57;42.74
62103;BME280;48077;48.104;11.702;2022-07-17T07:52:18;96307.91;;;19.73;43.37
62103;BME280;48077;48.104;11.702;2022-07-17T07:54:42;96316.28;;;19.82;43.03
62103;BME280;48077;48.104;11.702;2022-07-17T07:57:05;96279.47;;;19.71;43.33
62103;BME280;48077;48.104;11.702;2022-07-17T07:59:29;96321.69;;;20.08;41.72
62103;BME280;48077;48.104;11.702;2022-07-17T08:01:56;96289.47;;;20.01;41.04
62103;BME280;48077;48.104;11.702;2022-07-17T08:04:19;96297.84;;;20.15;41.54
62103;BME280;48077;48.104;11.702;2022-07-17T08:06:43;96311.38;;;20.25;40.55
62103;BME280;48077;48.104;11.702;2022-07-17T08:09:06;96308.91;;;20.34;40.42
62103;BME280;48077;48.104;11.702;2022-07-17T08:11:30;96259.97;;;20.05;40.45
62103;BME280;48077;48.104;11.702;2022-07-17T08:13:53;96302.38;;;20.40;40.31
62103;BME280;48077;48.104;11.702;2022-07-17T08:16:16;96314.81;;;20.56;39.96
62103;BME280;48077;48.104;11.702;2022-07-17T08:18:40;96319.41;;;20.61;39.88
62103;BME280;48077;48.104;11.702;2022-07-17T08:21:03;96311.81;;;20.63;39.36
62103;BME280;48077;48.104;11.702;2022-07-17T08:23:27;96313.41;;;20.74;40.11
62103;BME280;48077;48.104;11.702;2022-07-17T08:25:50;96301.75;;;20.69;39.14
62103;BME280;48077;48.104;11.702;2022-07-17T08:28:13;96319.03;;;20.88;39.30
62103;BME280;48077;48.104;11.702;2022-07-17T08:30:37;96318.19;;;20.93;38.95
62103;BME280;48077;48.104;11.702;2022-07-17T08:33:05;96325.16;;;21.09;38.78
62103;BME280;48077;48.104;11.702;2022-07-17T08:35:29;96333.78;;;21.21;38.56
62103;BME280;48077;48.104;11.702;2022-07-17T08:37:53;96318.91;;;21.14;38.54
62103;BME280;48077;48.104;11.702;2022-07-17T08:40:21;96326.97;;;21.24;38.61
62103;BME280;48077;48.104;11.702;2022-07-17T08:42:45;96333.91;;;21.46;37.55
62103;BME280;48077;48.104;11.702;2022-07-17T08:45:09;96323.66;;;21.42;37.04
62103;BME280;48077;48.104;11.702;2022-07-17T08:47:33;96305.53;;;21.28;37.79
62103;BME280;48077;48.104;11.702;2022-07-17T08:49:56;96331.19;;;21.51;38.61
62103;BME280;48077;48.104;11.702;2022-07-17T08:52:20;96326.56;;;21.51;38.38
62103;BME280;48077;48.104;11.702;2022-07-17T08:54:45;96325.50;;;21.52;37.91
62103;BME280;48077;48.104;11.702;2022-07-17T08:57:09;96341.66;;;21.68;38.63
62103;BME280;48077;48.104;11.702;2022-07-17T08:59:32;96320.00;;;21.62;37.53
62103;BME280;48077;48.104;11.702;2022-07-17T09:02:00;96315.84;;;21.70;36.94
62103;BME280;48077;48.104;11.702;2022-07-17T09:04:23;96320.19;;;21.71;37.89
62103;BME280;48077;48.104;11.702;2022-07-17T09:06:58;96327.31;;;21.96;39.38
62103;BME280;48077;48.104;11.702;2022-07-17T09:09:22;96334.75;;;22.15;37.74
62103;BME280;48077;48.104;11.702;2022-07-17T09:11:48;96337.94;;;22.27;36.81
62103;BME280;48077;48.104;11.702;2022-07-17T09:14:13;96337.22;;;22.40;35.44
62103;BME280;48077;48.104;11.702;2022-07-17T09:16:54;96331.09;;;22.54;36.82
62103;BME280;48077;48.104;11.702;2022-07-17T09:21:50;96337.00;;;22.85;35.13
62103;BME280;48077;48.104;11.702;2022-07-17T09:24:14;96314.50;;;22.79;35.71
62103;BME280;48077;48.104;11.702;2022-07-17T09:26:43;96314.59;;;22.93;36.11
62103;BME280;48077;48.104;11.702;2022-07-17T09:29:08;96334.56;;;23.08;36.05
62103;BME280;48077;48.104;11.702;2022-07-17T09:31:34;96310.03;;;23.13;32.53
62103;BME280;48077;48.104;11.702;2022-07-17T09:33:58;96314.97;;;23.11;32.94
62103;BME280;48077;48.104;11.702;2022-07-17T09:36:22;96324.97;;;23.15;33.73
62103;BME280;48077;48.104;11.702;2022-07-17T09:38:46;96321.50;;;23.10;34.15
62103;BME280;48077;48.104;11.702;2022-07-17T09:41:14;96329.22;;;23.21;35.13
62103;BME280;48077;48.104;11.702;2022-07-17T09:43:46;96320.97;;;23.27;35.27
62103;BME280;48077;48.104;11.702;2022-07-17T09:46:12;96337.16;;;23.37;33.03
62103;BME280;48077;48.104;11.702;2022-07-17T09:48:41;96329.28;;;23.35;32.94
62103;BME280;48077;48.104;11.702;2022-07-17T09:51:08;96313.94;;;23.26;34.48
62103;BME280;48077;48.104;11.702;2022-07-17T09:53:33;96333.50;;;23.47;33.05
62103;BME280;48077;48.104;11.702;2022-07-17T09:55:59;96314.00;;;23.39;34.14
62103;BME280;48077;48.104;11.702;2022-07-17T09:58:25;96334.75;;;23.54;34.15
62103;BME280;48077;48.104;11.702;2022-07-17T10:00:50;96333.06;;;23.58;34.17
62103;BME280;48077;48.104;11.702;2022-07-17T10:03:18;96325.31;;;23.66;34.85
62103;BME280;48077;48.104;11.702;2022-07-17T10:05:41;96338.53;;;23.91;33.62
62103;BME280;48077;48.104;11.702;2022-07-17T10:08:05;96334.22;;;23.90;32.83
62103;BME280;48077;48.104;11.702;2022-07-17T10:10:29;96313.09;;;23.82;32.24
62103;BME280;48077;48.104;11.702;2022-07-17T10:12:53;96319.78;;;23.71;31.82
62103;BME280;48077;48.104;11.702;2022-07-17T10:15:17;96334.78;;;23.87;34.01
62103;BME280;48077;48.104;11.702;2022-07-17T10:17:40;96331.31;;;24.00;33.19
62103;BME280;48077;48.104;11.702;2022-07-17T10:20:04;96327.78;;;24.00;33.55
62103;BME280;48077;48.104;11.702;2022-07-17T10:22:40;96341.44;;;24.14;33.09
62103;BME280;48077;48.104;11.702;2022-07-17T10:25:04;96341.16;;;24.29;34.34
62103;BME280;48077;48.104;11.702;2022-07-17T10:27:29;96337.06;;;24.45;33.11
62103;BME280;48077;48.104;11.702;2022-07-17T10:30:07;96334.88;;;24.61;32.35
62103;BME280;48077;48.104;11.702;2022-07-17T10:32:32;96341.88;;;24.81;31.52
62103;BME280;48077;48.104;11.702;2022-07-17T10:35:03;96337.00;;;24.78;30.65
62103;BME280;48077;48.104;11.702;2022-07-17T10:37:38;96320.03;;;24.68;30.69
62103;BME280;48077;48.104;11.702;2022-07-17T10:42:46;96332.44;;;25.01;30.79
62103;BME280;48077;48.104;11.702;2022-07-17T10:45:18;96312.25;;;25.02;30.97
62103;BME280;48077;48.104;11.702;2022-07-17T10:47:44;96336.78;;;25.30;31.25
62103;BME280;48077;48.104;11.702;2022-07-17T10:50:08;96329.59;;;25.34;30.99
62103;BME280;48077;48.104;11.702;2022-07-17T10:52:31;96330.66;;;25.47;31.06
62103;BME280;48077;48.104;11.702;2022-07-17T10:54:54;96309.81;;;25.51;29.77
62103;BME280;48077;48.104;11.702;2022-07-17T10:57:18;96328.66;;;25.75;29.68
62103;BME280;48077;48.104;11.702;2022-07-17T10:59:41;96334.38;;;25.65;30.26
62103;BME280;48077;48.104;11.702;2022-07-17T11:02:05;96329.75;;;25.74;30.56
62103;BME280;48077;48.104;11.702;2022-07-17T11:04:37;96310.22;;;25.58;29.41
62103;BME280;48077;48.104;11.702;2022-07-17T11:07:06;96319.88;;;25.64;28.86
62103;BME280;48077;48.104;11.702;2022-07-17T11:09:29;96320.88;;;25.69;29.29
62103;BME280;48077;48.104;11.702;2022-07-17T11:11:55;96296.19;;;25.74;29.39
62103;BME280;48077;48.104;11.702;2022-07-17T11:19:12;96300.81;;;25.51;27.80
62103;BME280;48077;48.104;11.702;2022-07-17T11:21:48;96291.47;;;25.65;27.84
62103;BME280;48077;48.104;11.702;2022-07-17T11:24:12;96291.97;;;25.90;28.85
62103;BME280;48077;48.104;11.702;2022-07-17T11:26:36;96278.22;;;26.04;28.58
62103;BME280;48077;48.104;11.702;2022-07-17T11:28:59;96295.88;;;26.29;29.04
62103;BME280;48077;48.104;11.702;2022-07-17T11:31:24;96301.44;;;26.47;28.34
62103;BME280;48077;48.104;11.702;2022-07-17T11:34:00;96298.13;;;26.58;28.63
62103;BME280;48077;48.104;11.702;2022-07-17T11:36:31;96298.03;;;26.81;28.17
62103;BME280;48077;48.104;11.702;2022-07-17T11:38:56;96286.53;;;27.10;27.96
62103;BME280;48077;48.104;11.702;2022-07-17T11:41:19;96255.28;;;27.02;26.27
62103;BME280;48077;48.104;11.702;2022-07-17T11:43:44;96280.28;;;27.27;27.26
62103;BME280;48077;48.104;11.702;2022-07-17T11:46:08;96251.91;;;27.14;26.89
62103;BME280;48077;48.104;11.702;2022-07-17T11:48:32;96243.19;;;27.03;26.79
62103;BME280;48077;48.104;11.702;2022-07-17T11:50:56;96269.19;;;27.23;28.29
62103;BME280;48077;48.104;11.702;2022-07-17T11:53:19;96270.78;;;27.33;27.61
62103;BME280;48077;48.104;11.702;2022-07-17T11:55:43;96268.22;;;27.45;27.54
62103;BME280;48077;48.104;11.702;2022-07-17T11:58:07;96272.41;;;27.69;27.11
62103;BME280;48077;48.104;11.702;2022-07-17T12:00:31;96271.41;;;27.91;27.00
62103;BME280;48077;48.104;11.702;2022-07-17T12:02:59;96266.03;;;28.12;25.79
62103;BME280;48077;48.104;11.702;2022-07-17T12:05:27;96265.69;;;28.22;25.56
62103;BME280;48077;48.104;11.702;2022-07-17T12:07:51;96266.13;;;28.42;26.93
62103;BME280;48077;48.104;11.702;2022-07-17T12:10:22;96255.13;;;28.51;25.40
62103;BME280;48077;48.104;11.702;2022-07-17T12:13:04;96261.84;;;28.62;25.37
62103;BME280;48077;48.104;11.702;2022-07-17T12:15:42;96265.69;;;28.70;26.91
62103;BME280;48077;48.104;11.702;2022-07-17T12:18:18;96268.28;;;28.66;25.45
62103;BME280;48077;48.104;11.702;2022-07-17T12:20:52;96252.72;;;28.79;25.41
62103;BME280;48077;48.104;11.702;2022-07-17T12:26:06;96258.38;;;29.03;24.26
62103;BME280;48077;48.104;11.702;2022-07-17T12:28:30;96246.44;;;29.29;25.17
62103;BME280;48077;48.104;11.702;2022-07-17T12:30:53;96263.19;;;29.57;24.66
62103;BME280;48077;48.104;11.702;2022-07-17T12:33:17;96262.00;;;29.46;24.00
62103;BME280;48077;48.104;11.702;2022-07-17T12:35:40;96252.66;;;29.38;24.22
62103;BME280;48077;48.104;11.702;2022-07-17T12:38:03;96253.31;;;29.35;24.29
62103;BME280;48077;48.104;11.702;2022-07-17T12:40:27;96249.97;;;29.51;23.67
62103;BME280;48077;48.104;11.702;2022-07-17T12:42:50;96250.50;;;29.86;24.63
62103;BME280;48077;48.104;11.702;2022-07-17T12:45:13;96252.63;;;30.14;24.03
62103;BME280;48077;48.104;11.702;2022-07-17T12:47:37;96259.72;;;30.27;23.13